SWR2355 LGZA-LSGG
Flight info
| Callsign | SWR2355 |
|---|---|
| Flight time | 3h 5m |
| Altitude | 36000 |
| Route | ENESI UM872 LATAN DCT GRT DCT LUXIL DCT URIPI DCT AMGOK DCT GOTMO DCT ROSUV DCT OKTAV DCT BOTAL DCT AOSTA L615 BANKO |
| Aircraft | A321/M-SDE3FGHIRWY/LB1 |
Departure
| Time | 2026-04-24 16:58 |
|---|---|
| Airport | Zakynthos International Airport Dionysios Solomos (LGZA) |
Arrival
| Time | 2026-04-24 20:03 |
|---|---|
| Airport | Geneva International Airport (LSGG) |
| Time | Latitude | Longitude | Altitude | Speed | Heading |
|---|---|---|---|---|---|
| 2026-04-24 16:30 | 37.75448 | 20.88505 | 21 ft | 0 kts | 73° |
| 2026-04-24 16:47 | 37.75443 | 20.88479 | 23 ft | 4 kts | 80° |
| 2026-04-24 16:48 | 37.75440 | 20.88446 | 22 ft | 4 kts | 97° |
| 2026-04-24 16:48 | 37.75444 | 20.88425 | 22 ft | 4 kts | 120° |
| 2026-04-24 16:48 | 37.75456 | 20.88409 | 22 ft | 0 kts | 162° |
| 2026-04-24 16:52 | 37.75437 | 20.88416 | 22 ft | 6 kts | 162° |
| 2026-04-24 16:52 | 37.75377 | 20.88440 | 20 ft | 11 kts | 163° |
| 2026-04-24 16:53 | 37.75309 | 20.88465 | 22 ft | 9 kts | 163° |
| 2026-04-24 16:53 | 37.75251 | 20.88487 | 20 ft | 8 kts | 163° |
| 2026-04-24 16:53 | 37.75203 | 20.88504 | 20 ft | 7 kts | 165° |
| 2026-04-24 16:53 | 37.75162 | 20.88518 | 22 ft | 5 kts | 165° |
| 2026-04-24 16:54 | 37.75129 | 20.88529 | 20 ft | 5 kts | 165° |
| 2026-04-24 16:54 | 37.75110 | 20.88521 | 20 ft | 3 kts | 212° |
| 2026-04-24 16:54 | 37.75048 | 20.88472 | 20 ft | 19 kts | 211° |
| 2026-04-24 16:54 | 37.74912 | 20.88491 | 18 ft | 20 kts | 163° |
| 2026-04-24 16:55 | 37.74786 | 20.88538 | 20 ft | 18 kts | 163° |
| 2026-04-24 16:55 | 37.74673 | 20.88581 | 21 ft | 16 kts | 163° |
| 2026-04-24 16:55 | 37.74569 | 20.88620 | 21 ft | 15 kts | 163° |
| 2026-04-24 16:55 | 37.74475 | 20.88655 | 22 ft | 14 kts | 163° |
| 2026-04-24 16:56 | 37.74385 | 20.88687 | 20 ft | 13 kts | 163° |
| 2026-04-24 16:56 | 37.74301 | 20.88719 | 20 ft | 12 kts | 163° |
| 2026-04-24 16:56 | 37.74229 | 20.88741 | 22 ft | 9 kts | 184° |
| 2026-04-24 16:56 | 37.74172 | 20.88742 | 22 ft | 7 kts | 143° |
| 2026-04-24 16:57 | 37.74172 | 20.88783 | 20 ft | 4 kts | 35° |
| 2026-04-24 16:57 | 37.74189 | 20.88777 | 20 ft | 2 kts | 323° |
| 2026-04-24 16:57 | 37.74223 | 20.88753 | 21 ft | 10 kts | 338° |
| 2026-04-24 16:57 | 37.74449 | 20.88667 | 21 ft | 69 kts | 343° |
| 2026-04-24 16:58 | 37.75124 | 20.88415 | 20 ft | 130 kts | 343° |
| 2026-04-24 16:58 | 37.76140 | 20.88014 | 97 ft | 169 kts | 342° |
| 2026-04-24 16:58 | 37.77256 | 20.87593 | 777 ft | 166 kts | 342° |
| 2026-04-24 16:58 | 37.78364 | 20.87176 | 1457 ft | 169 kts | 340° |
| 2026-04-24 16:59 | 37.79353 | 20.86261 | 1726 ft | 190 kts | 311° |
| 2026-04-24 16:59 | 37.80285 | 20.84961 | 1880 ft | 210 kts | 317° |
| 2026-04-24 16:59 | 37.82702 | 20.82219 | 2641 ft | 248 kts | 320° |
| 2026-04-24 17:00 | 37.84008 | 20.80764 | 3472 ft | 253 kts | 320° |
| 2026-04-24 17:00 | 37.86714 | 20.77681 | 4928 ft | 270 kts | 320° |
| 2026-04-24 17:00 | 37.88114 | 20.76056 | 5655 ft | 276 kts | 320° |
| 2026-04-24 17:01 | 37.90975 | 20.72707 | 7215 ft | 283 kts | 320° |
| 2026-04-24 17:01 | 37.92424 | 20.71000 | 8027 ft | 285 kts | 320° |
| 2026-04-24 17:02 | 37.95349 | 20.67546 | 9656 ft | 289 kts | 319° |
| 2026-04-24 17:02 | 37.96833 | 20.65798 | 10298 ft | 297 kts | 320° |
| 2026-04-24 17:02 | 37.98407 | 20.63950 | 10489 ft | 320 kts | 319° |
| 2026-04-24 17:02 | 38.00087 | 20.61973 | 10804 ft | 336 kts | 319° |
| 2026-04-24 17:03 | 38.03555 | 20.57870 | 12143 ft | 344 kts | 320° |
| 2026-04-24 17:03 | 38.05314 | 20.55790 | 12858 ft | 347 kts | 320° |
| 2026-04-24 17:03 | 38.07090 | 20.53693 | 13570 ft | 350 kts | 320° |
| 2026-04-24 17:04 | 38.08881 | 20.51578 | 14215 ft | 353 kts | 320° |
| 2026-04-24 17:04 | 38.12495 | 20.47292 | 15492 ft | 358 kts | 321° |
| 2026-04-24 17:04 | 38.14319 | 20.45128 | 16139 ft | 360 kts | 320° |
| 2026-04-24 17:05 | 38.16153 | 20.42953 | 16773 ft | 362 kts | 321° |
| 2026-04-24 17:05 | 38.18002 | 20.40759 | 17380 ft | 365 kts | 321° |
| 2026-04-24 17:05 | 38.21748 | 20.36310 | 18542 ft | 371 kts | 320° |
| 2026-04-24 17:06 | 38.23639 | 20.34055 | 19046 ft | 375 kts | 320° |
| 2026-04-24 17:06 | 38.27470 | 20.29484 | 20054 ft | 380 kts | 320° |
| 2026-04-24 17:06 | 38.29403 | 20.27178 | 20557 ft | 383 kts | 320° |
| 2026-04-24 17:07 | 38.30693 | 20.25637 | 20889 ft | 385 kts | 320° |
| 2026-04-24 17:07 | 38.33313 | 20.22501 | 21545 ft | 388 kts | 320° |
| 2026-04-24 17:07 | 38.37279 | 20.17759 | 22517 ft | 394 kts | 320° |
| 2026-04-24 17:08 | 38.41300 | 20.12946 | 23429 ft | 399 kts | 320° |
| 2026-04-24 17:08 | 38.43308 | 20.10485 | 23844 ft | 402 kts | 319° |
| 2026-04-24 17:08 | 38.45305 | 20.07976 | 24231 ft | 404 kts | 319° |
| 2026-04-24 17:09 | 38.49301 | 20.02877 | 25006 ft | 408 kts | 318° |
| 2026-04-24 17:09 | 38.53345 | 19.97720 | 25723 ft | 414 kts | 319° |
| 2026-04-24 17:10 | 38.55392 | 19.95122 | 26081 ft | 416 kts | 319° |
| 2026-04-24 17:10 | 38.61614 | 19.87245 | 27182 ft | 423 kts | 319° |
| 2026-04-24 17:11 | 38.67925 | 19.79222 | 28211 ft | 430 kts | 319° |
| 2026-04-24 17:12 | 38.78634 | 19.65549 | 29834 ft | 440 kts | 319° |
| 2026-04-24 18:54 | 46.10060 | 6.77049 | 22904 ft | 300 kts | 169° |
| 2026-04-24 18:55 | 46.05947 | 6.78073 | 22375 ft | 299 kts | 170° |
| 2026-04-24 18:55 | 46.03901 | 6.78575 | 22185 ft | 297 kts | 170° |
| 2026-04-24 18:55 | 46.01867 | 6.79094 | 22152 ft | 297 kts | 169° |
| 2026-04-24 18:56 | 45.99833 | 6.79629 | 22156 ft | 297 kts | 169° |
| 2026-04-24 18:56 | 45.97799 | 6.80163 | 22157 ft | 298 kts | 172° |
| 2026-04-24 18:56 | 45.95735 | 6.80181 | 22159 ft | 298 kts | 188° |
| 2026-04-24 18:56 | 45.93742 | 6.79388 | 22158 ft | 298 kts | 204° |
| 2026-04-24 18:57 | 45.91970 | 6.77845 | 22157 ft | 300 kts | 219° |
| 2026-04-24 18:57 | 45.90552 | 6.75649 | 22157 ft | 301 kts | 235° |
| 2026-04-24 18:57 | 45.89608 | 6.72965 | 22155 ft | 303 kts | 251° |
| 2026-04-24 18:57 | 45.89220 | 6.69991 | 22158 ft | 305 kts | 267° |
| 2026-04-24 18:58 | 45.89423 | 6.66963 | 22159 ft | 307 kts | 283° |
| 2026-04-24 18:58 | 45.90229 | 6.64085 | 22157 ft | 309 kts | 300° |
| 2026-04-24 18:58 | 45.91540 | 6.61704 | 22149 ft | 310 kts | 317° |
| 2026-04-24 18:58 | 45.93300 | 6.59908 | 22149 ft | 311 kts | 334° |
| 2026-04-24 18:59 | 45.95337 | 6.58851 | 22150 ft | 312 kts | 345° |
| 2026-04-24 18:59 | 45.97450 | 6.58135 | 22150 ft | 313 kts | 348° |
| 2026-04-24 18:59 | 45.99593 | 6.57558 | 22146 ft | 314 kts | 350° |
| 2026-04-24 18:59 | 46.01751 | 6.57031 | 22145 ft | 315 kts | 350° |
| 2026-04-24 19:00 | 46.03969 | 6.56494 | 22149 ft | 315 kts | 349° |
| 2026-04-24 19:00 | 46.05407 | 6.56153 | 22148 ft | 316 kts | 353° |
| 2026-04-24 19:00 | 46.07580 | 6.56326 | 22145 ft | 314 kts | 17° |
| 2026-04-24 19:00 | 46.09540 | 6.57635 | 22146 ft | 311 kts | 39° |
| 2026-04-24 19:01 | 46.11355 | 6.60744 | 22146 ft | 306 kts | 68° |
| 2026-04-24 19:01 | 46.11811 | 6.62693 | 22144 ft | 303 kts | 83° |
| 2026-04-24 19:01 | 46.11833 | 6.65743 | 22143 ft | 299 kts | 104° |
| 2026-04-24 19:01 | 46.10762 | 6.69265 | 22156 ft | 294 kts | 131° |
| 2026-04-24 19:02 | 46.09806 | 6.70689 | 22153 ft | 292 kts | 144° |
| 2026-04-24 19:02 | 46.08041 | 6.72097 | 22154 ft | 291 kts | 163° |
| 2026-04-24 19:02 | 46.06082 | 6.72840 | 22156 ft | 291 kts | 168° |
| 2026-04-24 19:02 | 46.04099 | 6.73418 | 22157 ft | 291 kts | 170° |
| 2026-04-24 19:03 | 46.02102 | 6.73930 | 22159 ft | 292 kts | 171° |
| 2026-04-24 19:03 | 46.00099 | 6.74427 | 22151 ft | 293 kts | 170° |
| 2026-04-24 19:03 | 45.98076 | 6.74887 | 22154 ft | 296 kts | 177° |
| 2026-04-24 19:03 | 45.96040 | 6.74566 | 22157 ft | 297 kts | 197° |
| 2026-04-24 19:04 | 45.94202 | 6.73236 | 22158 ft | 298 kts | 217° |
| 2026-04-24 19:04 | 45.92796 | 6.71061 | 22158 ft | 299 kts | 238° |
| 2026-04-24 19:04 | 45.92017 | 6.68302 | 22157 ft | 301 kts | 258° |
| 2026-04-24 19:04 | 45.91981 | 6.65292 | 22157 ft | 304 kts | 280° |
| 2026-04-24 19:05 | 45.92719 | 6.62444 | 22149 ft | 307 kts | 301° |
| 2026-04-24 19:05 | 45.94135 | 6.60155 | 22150 ft | 310 kts | 323° |
| 2026-04-24 19:05 | 45.96049 | 6.58762 | 22150 ft | 311 kts | 345° |
| 2026-04-24 19:05 | 45.98156 | 6.58032 | 22150 ft | 312 kts | 348° |
| 2026-04-24 19:06 | 46.00293 | 6.57427 | 22144 ft | 314 kts | 349° |
| 2026-04-24 19:06 | 46.02461 | 6.56869 | 22145 ft | 314 kts | 350° |
| 2026-04-24 19:06 | 46.04603 | 6.56329 | 22147 ft | 315 kts | 349° |
| 2026-04-24 19:06 | 46.06780 | 6.56107 | 22133 ft | 314 kts | 8° |
| 2026-04-24 19:07 | 46.08849 | 6.57022 | 22147 ft | 312 kts | 31° |
| 2026-04-24 19:07 | 46.10525 | 6.58955 | 22144 ft | 309 kts | 53° |
| 2026-04-24 19:07 | 46.11581 | 6.61602 | 22145 ft | 305 kts | 75° |
| 2026-04-24 19:07 | 46.11896 | 6.64584 | 22144 ft | 300 kts | 96° |
| 2026-04-24 19:08 | 46.11450 | 6.67480 | 22142 ft | 296 kts | 117° |
| 2026-04-24 19:08 | 46.10332 | 6.69936 | 22156 ft | 293 kts | 137° |
| 2026-04-24 19:08 | 46.08708 | 6.71661 | 22155 ft | 291 kts | 156° |
| 2026-04-24 19:08 | 46.06790 | 6.72566 | 22158 ft | 291 kts | 167° |
| 2026-04-24 19:09 | 46.04814 | 6.73184 | 22161 ft | 291 kts | 169° |
| 2026-04-24 19:09 | 46.02823 | 6.73709 | 22157 ft | 291 kts | 171° |
| 2026-04-24 19:09 | 46.00829 | 6.74206 | 22154 ft | 291 kts | 171° |
| 2026-04-24 19:09 | 45.98819 | 6.74709 | 22158 ft | 295 kts | 171° |
| 2026-04-24 19:10 | 45.96775 | 6.74776 | 22156 ft | 295 kts | 190° |
| 2026-04-24 19:10 | 45.94840 | 6.73798 | 22160 ft | 297 kts | 210° |
| 2026-04-24 19:10 | 45.93259 | 6.71898 | 22163 ft | 299 kts | 230° |
| 2026-04-24 19:10 | 45.92240 | 6.69313 | 22160 ft | 300 kts | 251° |
| 2026-04-24 19:11 | 45.91927 | 6.66359 | 22157 ft | 303 kts | 272° |
| 2026-04-24 19:11 | 45.92389 | 6.63412 | 22149 ft | 306 kts | 294° |
| 2026-04-24 19:11 | 45.93574 | 6.60880 | 22150 ft | 308 kts | 315° |
| 2026-04-24 19:11 | 45.95308 | 6.59148 | 22148 ft | 310 kts | 337° |
| 2026-04-24 19:12 | 45.97403 | 6.58259 | 22151 ft | 311 kts | 347° |
| 2026-04-24 19:12 | 45.99530 | 6.57618 | 22147 ft | 313 kts | 349° |
| 2026-04-24 19:12 | 46.01676 | 6.57052 | 22146 ft | 314 kts | 349° |
| 2026-04-24 19:12 | 46.03805 | 6.56514 | 22147 ft | 315 kts | 349° |
| 2026-04-24 19:13 | 46.05263 | 6.56155 | 22142 ft | 315 kts | 352° |
| 2026-04-24 19:13 | 46.08139 | 6.56555 | 22143 ft | 313 kts | 23° |
| 2026-04-24 19:13 | 46.09974 | 6.58118 | 21964 ft | 310 kts | 45° |
| 2026-04-24 19:13 | 46.11284 | 6.60572 | 21700 ft | 304 kts | 67° |
| 2026-04-24 19:14 | 46.11860 | 6.63451 | 21448 ft | 298 kts | 89° |
| 2026-04-24 19:14 | 46.11693 | 6.66382 | 21194 ft | 292 kts | 109° |
| 2026-04-24 19:14 | 46.10844 | 6.68997 | 20950 ft | 288 kts | 129° |
| 2026-04-24 19:14 | 46.09444 | 6.71005 | 20708 ft | 284 kts | 148° |
| 2026-04-24 19:15 | 46.07673 | 6.72197 | 20469 ft | 281 kts | 165° |
| 2026-04-24 19:15 | 46.05776 | 6.72873 | 20236 ft | 280 kts | 169° |
| 2026-04-24 19:15 | 46.03864 | 6.73406 | 20149 ft | 279 kts | 170° |
| 2026-04-24 19:15 | 46.01949 | 6.73889 | 20157 ft | 280 kts | 171° |
| 2026-04-24 19:16 | 45.98106 | 6.74817 | 20154 ft | 285 kts | 176° |
| 2026-04-24 19:16 | 45.96149 | 6.74543 | 20158 ft | 285 kts | 197° |
| 2026-04-24 19:16 | 45.94365 | 6.73326 | 20158 ft | 285 kts | 216° |
| 2026-04-24 19:17 | 45.92972 | 6.71315 | 20159 ft | 286 kts | 235° |
| 2026-04-24 19:17 | 45.92136 | 6.68729 | 20158 ft | 288 kts | 255° |
| 2026-04-24 19:17 | 45.91966 | 6.65870 | 20157 ft | 290 kts | 275° |
| 2026-04-24 19:17 | 45.92498 | 6.63075 | 20148 ft | 293 kts | 296° |
| 2026-04-24 19:18 | 45.93694 | 6.60707 | 20149 ft | 296 kts | 317° |
| 2026-04-24 19:18 | 45.95411 | 6.59087 | 20148 ft | 298 kts | 339° |
| 2026-04-24 19:18 | 45.97429 | 6.58250 | 20153 ft | 299 kts | 347° |
| 2026-04-24 19:18 | 45.99487 | 6.57632 | 20146 ft | 301 kts | 349° |
| 2026-04-24 19:19 | 46.01503 | 6.57106 | 20148 ft | 302 kts | 350° |
| 2026-04-24 19:19 | 46.03576 | 6.56588 | 20148 ft | 302 kts | 349° |
| 2026-04-24 19:19 | 46.05649 | 6.56104 | 20141 ft | 302 kts | 356° |
| 2026-04-24 19:19 | 46.07716 | 6.56444 | 20141 ft | 300 kts | 21° |
| 2026-04-24 19:20 | 46.09518 | 6.57905 | 20142 ft | 298 kts | 44° |
| 2026-04-24 19:20 | 46.10782 | 6.60228 | 20144 ft | 295 kts | 67° |
| 2026-04-24 19:20 | 46.11336 | 6.63030 | 20144 ft | 290 kts | 89° |
| 2026-04-24 19:20 | 46.11115 | 6.65879 | 20144 ft | 286 kts | 111° |
| 2026-04-24 19:21 | 46.10178 | 6.68372 | 20143 ft | 283 kts | 133° |
| 2026-04-24 19:21 | 46.08694 | 6.70184 | 20156 ft | 280 kts | 153° |
| 2026-04-24 19:21 | 46.06877 | 6.71136 | 20159 ft | 279 kts | 167° |
| 2026-04-24 19:21 | 46.04980 | 6.71742 | 20158 ft | 280 kts | 169° |
| 2026-04-24 19:22 | 46.03716 | 6.72087 | 20156 ft | 279 kts | 170° |
| 2026-04-24 19:22 | 46.01155 | 6.72737 | 20157 ft | 279 kts | 171° |
| 2026-04-24 19:22 | 45.99212 | 6.73228 | 20157 ft | 279 kts | 170° |
| 2026-04-24 19:22 | 45.97311 | 6.73383 | 20151 ft | 279 kts | 188° |
| 2026-04-24 19:23 | 45.95464 | 6.72539 | 20156 ft | 282 kts | 209° |
| 2026-04-24 19:23 | 45.93941 | 6.70781 | 20157 ft | 283 kts | 230° |
| 2026-04-24 19:23 | 45.92966 | 6.68344 | 20158 ft | 286 kts | 251° |
| 2026-04-24 19:23 | 45.92682 | 6.65505 | 20157 ft | 289 kts | 273° |
| 2026-04-24 19:24 | 45.93164 | 6.62703 | 20149 ft | 292 kts | 295° |
| 2026-04-24 19:24 | 45.94358 | 6.60344 | 20140 ft | 296 kts | 317° |
| 2026-04-24 19:24 | 45.96101 | 6.58792 | 19883 ft | 296 kts | 341° |
| 2026-04-24 19:24 | 45.98092 | 6.58059 | 19641 ft | 296 kts | 348° |
| 2026-04-24 19:25 | 46.00121 | 6.57482 | 19405 ft | 298 kts | 349° |
| 2026-04-24 19:25 | 46.02154 | 6.56958 | 19210 ft | 297 kts | 349° |
| 2026-04-24 19:25 | 46.04187 | 6.56445 | 19135 ft | 296 kts | 349° |
| 2026-04-24 19:25 | 46.06231 | 6.56093 | 19138 ft | 296 kts | 4° |
| 2026-04-24 19:26 | 46.08216 | 6.56782 | 19147 ft | 295 kts | 28° |
| 2026-04-24 19:26 | 46.09843 | 6.58532 | 19146 ft | 292 kts | 52° |
| 2026-04-24 19:26 | 46.10846 | 6.61034 | 19148 ft | 289 kts | 76° |
| 2026-04-24 19:26 | 46.11087 | 6.63862 | 19147 ft | 284 kts | 98° |
| 2026-04-24 19:27 | 46.10568 | 6.66570 | 19144 ft | 280 kts | 121° |
| 2026-04-24 19:27 | 46.09390 | 6.68766 | 19155 ft | 277 kts | 142° |
| 2026-04-24 19:27 | 46.07745 | 6.70150 | 19155 ft | 274 kts | 163° |
| 2026-04-24 19:27 | 46.05875 | 6.70851 | 19158 ft | 275 kts | 169° |
| 2026-04-24 19:28 | 46.03998 | 6.71391 | 19156 ft | 275 kts | 170° |
| 2026-04-24 19:28 | 46.02116 | 6.71874 | 19157 ft | 275 kts | 171° |
| 2026-04-24 19:28 | 46.00229 | 6.72349 | 19158 ft | 275 kts | 171° |
| 2026-04-24 19:28 | 45.98342 | 6.72776 | 19154 ft | 275 kts | 178° |
| 2026-04-24 19:29 | 45.94801 | 6.71064 | 19156 ft | 277 kts | 221° |
| 2026-04-24 19:29 | 45.93599 | 6.68906 | 19156 ft | 280 kts | 243° |
| 2026-04-24 19:29 | 45.93037 | 6.66233 | 19158 ft | 283 kts | 264° |
| 2026-04-24 19:30 | 45.93225 | 6.63423 | 19147 ft | 286 kts | 287° |
| 2026-04-24 19:30 | 45.94161 | 6.60907 | 19141 ft | 290 kts | 309° |
| 2026-04-24 19:30 | 45.95723 | 6.59088 | 18898 ft | 290 kts | 334° |
| 2026-04-24 19:30 | 45.97644 | 6.58216 | 18722 ft | 290 kts | 347° |
| 2026-04-24 19:31 | 45.99631 | 6.57625 | 18528 ft | 293 kts | 348° |
| 2026-04-24 19:31 | 46.01637 | 6.57099 | 18284 ft | 293 kts | 349° |
| 2026-04-24 19:31 | 46.03637 | 6.56592 | 18130 ft | 292 kts | 349° |
| 2026-04-24 19:31 | 46.05634 | 6.56120 | 18137 ft | 292 kts | 356° |
| 2026-04-24 19:32 | 46.07629 | 6.56469 | 18146 ft | 291 kts | 21° |
| 2026-04-24 19:32 | 46.09344 | 6.57955 | 18145 ft | 288 kts | 46° |
| 2026-04-24 19:32 | 46.10487 | 6.60277 | 18147 ft | 285 kts | 70° |
| 2026-04-24 19:32 | 46.10896 | 6.63034 | 18148 ft | 281 kts | 94° |
| 2026-04-24 19:33 | 46.10525 | 6.65750 | 18143 ft | 277 kts | 116° |
| 2026-04-24 19:33 | 46.09468 | 6.68025 | 18146 ft | 273 kts | 139° |
| 2026-04-24 19:33 | 46.07903 | 6.69529 | 18153 ft | 271 kts | 160° |
| 2026-04-24 19:33 | 46.06092 | 6.70259 | 18157 ft | 271 kts | 168° |
| 2026-04-24 19:34 | 46.04246 | 6.70802 | 18159 ft | 271 kts | 170° |
| 2026-04-24 19:34 | 46.02367 | 6.71293 | 18156 ft | 271 kts | 171° |
| 2026-04-24 19:34 | 46.00508 | 6.71763 | 18158 ft | 271 kts | 171° |
| 2026-04-24 19:34 | 45.98673 | 6.72209 | 18156 ft | 271 kts | 175° |
| 2026-04-24 19:35 | 45.96790 | 6.71961 | 18152 ft | 270 kts | 198° |
| 2026-04-24 19:35 | 45.95129 | 6.70708 | 18157 ft | 273 kts | 219° |
| 2026-04-24 19:35 | 45.93906 | 6.68634 | 18156 ft | 275 kts | 241° |
| 2026-04-24 19:35 | 45.93323 | 6.66030 | 18159 ft | 278 kts | 264° |
| 2026-04-24 19:36 | 45.93497 | 6.63264 | 18145 ft | 281 kts | 287° |
| 2026-04-24 19:36 | 45.94419 | 6.60792 | 18146 ft | 284 kts | 310° |
| 2026-04-24 19:36 | 45.95954 | 6.59023 | 18145 ft | 286 kts | 334° |
| 2026-04-24 19:36 | 45.97855 | 6.58170 | 18153 ft | 288 kts | 347° |
| 2026-04-24 19:37 | 45.99823 | 6.57590 | 18147 ft | 290 kts | 349° |
| 2026-04-24 19:37 | 46.01818 | 6.57061 | 18145 ft | 291 kts | 349° |
| 2026-04-24 19:37 | 46.03839 | 6.56540 | 18147 ft | 292 kts | 349° |
| 2026-04-24 19:37 | 46.05816 | 6.56101 | 18141 ft | 292 kts | 359° |
| 2026-04-24 19:38 | 46.07800 | 6.56557 | 18144 ft | 290 kts | 24° |
| 2026-04-24 19:38 | 46.08987 | 6.57505 | 18144 ft | 289 kts | 40° |
| 2026-04-24 19:38 | 46.10290 | 6.59654 | 18144 ft | 285 kts | 64° |
| 2026-04-24 19:38 | 46.10893 | 6.62336 | 18145 ft | 281 kts | 88° |
| 2026-04-24 19:39 | 46.10729 | 6.65105 | 18147 ft | 277 kts | 110° |
| 2026-04-24 19:39 | 46.09854 | 6.67522 | 18147 ft | 273 kts | 133° |
| 2026-04-24 19:39 | 46.08407 | 6.69267 | 18153 ft | 270 kts | 154° |
| 2026-04-24 19:39 | 46.06645 | 6.70159 | 18161 ft | 270 kts | 167° |
| 2026-04-24 19:40 | 46.04807 | 6.70732 | 18156 ft | 270 kts | 170° |
| 2026-04-24 19:40 | 46.02956 | 6.71221 | 18158 ft | 270 kts | 171° |
| 2026-04-24 19:40 | 46.01105 | 6.71686 | 18155 ft | 270 kts | 171° |
| 2026-04-24 19:40 | 45.99254 | 6.72157 | 18158 ft | 270 kts | 171° |
| 2026-04-24 19:41 | 45.97389 | 6.72242 | 18155 ft | 269 kts | 191° |
| 2026-04-24 19:41 | 45.95635 | 6.71320 | 18156 ft | 271 kts | 212° |
| 2026-04-24 19:41 | 45.94237 | 6.69510 | 18157 ft | 273 kts | 233° |
| 2026-04-24 19:41 | 45.93412 | 6.67057 | 18159 ft | 276 kts | 256° |
| 2026-04-24 19:42 | 45.93304 | 6.64271 | 18147 ft | 279 kts | 278° |
| 2026-04-24 19:42 | 45.93958 | 6.61653 | 18147 ft | 282 kts | 302° |
| 2026-04-24 19:42 | 45.95289 | 6.59586 | 18147 ft | 285 kts | 325° |
| 2026-04-24 19:42 | 45.97078 | 6.58431 | 18148 ft | 286 kts | 346° |
| 2026-04-24 19:43 | 45.99047 | 6.57799 | 18141 ft | 289 kts | 348° |
| 2026-04-24 19:43 | 46.01029 | 6.57257 | 18148 ft | 291 kts | 349° |
| 2026-04-24 19:43 | 46.03022 | 6.56745 | 18149 ft | 291 kts | 349° |
| 2026-04-24 19:43 | 46.05013 | 6.56239 | 18146 ft | 291 kts | 350° |
| 2026-04-24 19:44 | 46.07025 | 6.56235 | 18143 ft | 290 kts | 14° |
| 2026-04-24 19:44 | 46.08856 | 6.57386 | 18146 ft | 288 kts | 38° |
| 2026-04-24 19:44 | 46.10202 | 6.59481 | 18148 ft | 285 kts | 63° |
| 2026-04-24 19:44 | 46.10860 | 6.62139 | 18148 ft | 281 kts | 86° |
| 2026-04-24 19:45 | 46.10748 | 6.64906 | 18129 ft | 278 kts | 108° |
| 2026-04-24 19:45 | 46.09910 | 6.67371 | 17848 ft | 272 kts | 131° |
| 2026-04-24 19:45 | 46.08495 | 6.69145 | 17595 ft | 274 kts | 153° |
| 2026-04-24 19:45 | 46.06698 | 6.70049 | 17341 ft | 276 kts | 171° |
| 2026-04-24 19:46 | 46.04782 | 6.70248 | 17077 ft | 276 kts | 187° |
| 2026-04-24 19:46 | 46.02955 | 6.69467 | 16822 ft | 276 kts | 209° |
| 2026-04-24 19:46 | 46.01478 | 6.67730 | 16564 ft | 277 kts | 231° |
| 2026-04-24 19:46 | 46.00587 | 6.65284 | 16309 ft | 279 kts | 254° |
| 2026-04-24 19:47 | 46.00429 | 6.62514 | 16048 ft | 281 kts | 277° |
| 2026-04-24 19:47 | 46.01042 | 6.59857 | 15792 ft | 283 kts | 300° |
| 2026-04-24 19:47 | 46.02339 | 6.57748 | 15552 ft | 284 kts | 324° |
| 2026-04-24 19:47 | 46.04110 | 6.56535 | 15308 ft | 284 kts | 345° |
| 2026-04-24 19:48 | 46.05997 | 6.55703 | 15061 ft | 283 kts | 330° |
| 2026-04-24 19:48 | 46.07439 | 6.53848 | 14814 ft | 279 kts | 304° |
| 2026-04-24 19:48 | 46.09302 | 6.48978 | 14343 ft | 277 kts | 295° |
| 2026-04-24 19:49 | 46.11110 | 6.44100 | 14134 ft | 275 kts | 300° |
| 2026-04-24 19:49 | 46.13129 | 6.39415 | 13666 ft | 274 kts | 302° |
| 2026-04-24 19:50 | 46.16459 | 6.32721 | 12878 ft | 271 kts | 315° |
| 2026-04-24 19:50 | 46.17966 | 6.31100 | 12614 ft | 271 kts | 332° |
| 2026-04-24 19:51 | 46.21614 | 6.30261 | 12123 ft | 270 kts | 11° |
| 2026-04-24 19:51 | 46.23352 | 6.31168 | 11894 ft | 262 kts | 30° |
| 2026-04-24 19:52 | 46.25974 | 6.34565 | 11393 ft | 247 kts | 46° |
| 2026-04-24 19:52 | 46.27160 | 6.36316 | 11142 ft | 241 kts | 45° |
| 2026-04-24 19:52 | 46.28329 | 6.38035 | 10740 ft | 240 kts | 45° |
| 2026-04-24 19:52 | 46.29501 | 6.39755 | 10261 ft | 240 kts | 45° |
| 2026-04-24 19:53 | 46.30672 | 6.41474 | 9819 ft | 239 kts | 45° |
| 2026-04-24 19:53 | 46.31806 | 6.43151 | 9450 ft | 226 kts | 45° |
| 2026-04-24 19:53 | 46.33930 | 6.46298 | 8364 ft | 212 kts | 45° |
| 2026-04-24 19:54 | 46.34955 | 6.47807 | 7814 ft | 208 kts | 45° |
| 2026-04-24 19:54 | 46.35954 | 6.49279 | 7291 ft | 209 kts | 45° |
| 2026-04-24 19:54 | 46.37006 | 6.50838 | 6744 ft | 212 kts | 45° |
| 2026-04-24 19:54 | 46.38021 | 6.52355 | 6436 ft | 205 kts | 46° |
| 2026-04-24 19:55 | 46.38677 | 6.53314 | 6294 ft | 201 kts | 41° |
| 2026-04-24 19:55 | 46.40389 | 6.54095 | 6067 ft | 197 kts | 350° |
| 2026-04-24 19:55 | 46.41595 | 6.53214 | 5997 ft | 196 kts | 319° |
| 2026-04-24 19:55 | 46.42571 | 6.51825 | 6002 ft | 197 kts | 309° |
| 2026-04-24 19:56 | 46.43052 | 6.50007 | 6002 ft | 197 kts | 271° |
| 2026-04-24 19:56 | 46.42827 | 6.48056 | 6008 ft | 197 kts | 255° |
| 2026-04-24 19:56 | 46.42450 | 6.46151 | 5893 ft | 196 kts | 253° |
| 2026-04-24 19:56 | 46.42057 | 6.44260 | 5743 ft | 195 kts | 253° |
| 2026-04-24 19:57 | 46.41679 | 6.42436 | 5579 ft | 183 kts | 253° |
| 2026-04-24 19:57 | 46.41327 | 6.40701 | 5429 ft | 178 kts | 253° |
| 2026-04-24 19:57 | 46.40981 | 6.38983 | 5280 ft | 178 kts | 253° |
| 2026-04-24 19:57 | 46.40635 | 6.37264 | 5138 ft | 177 kts | 253° |
| 2026-04-24 19:58 | 46.40275 | 6.35558 | 4990 ft | 177 kts | 248° |
| 2026-04-24 19:58 | 46.39562 | 6.34130 | 4844 ft | 176 kts | 224° |
| 2026-04-24 19:58 | 46.38706 | 6.32870 | 4682 ft | 175 kts | 225° |
| 2026-04-24 19:58 | 46.37852 | 6.31609 | 4534 ft | 175 kts | 225° |
| 2026-04-24 19:59 | 46.36999 | 6.30348 | 4390 ft | 175 kts | 225° |
| 2026-04-24 19:59 | 46.36134 | 6.29069 | 4240 ft | 175 kts | 225° |
| 2026-04-24 19:59 | 46.35292 | 6.27824 | 4162 ft | 177 kts | 225° |
| 2026-04-24 19:59 | 46.34427 | 6.26545 | 3976 ft | 177 kts | 225° |
| 2026-04-24 20:00 | 46.33563 | 6.25269 | 3755 ft | 176 kts | 226° |
| 2026-04-24 20:00 | 46.32708 | 6.24007 | 3531 ft | 175 kts | 226° |
| 2026-04-24 20:00 | 46.31858 | 6.22752 | 3302 ft | 175 kts | 225° |
| 2026-04-24 20:00 | 46.31008 | 6.21498 | 3069 ft | 174 kts | 225° |
| 2026-04-24 20:01 | 46.30178 | 6.20274 | 2864 ft | 165 kts | 226° |
| 2026-04-24 20:01 | 46.29396 | 6.19122 | 2634 ft | 158 kts | 226° |
| 2026-04-24 20:01 | 46.28636 | 6.18002 | 2427 ft | 154 kts | 226° |
| 2026-04-24 20:01 | 46.27890 | 6.16904 | 2217 ft | 152 kts | 226° |
| 2026-04-24 20:02 | 46.27392 | 6.16171 | 2083 ft | 151 kts | 226° |
| 2026-04-24 20:02 | 46.26417 | 6.14736 | 1810 ft | 150 kts | 227° |
| 2026-04-24 20:02 | 46.25681 | 6.13653 | 1614 ft | 149 kts | 226° |
| 2026-04-24 20:02 | 46.24955 | 6.12584 | 1404 ft | 149 kts | 225° |
| 2026-04-24 20:03 | 46.24323 | 6.11653 | 1373 ft | 93 kts | 225° |
| 2026-04-24 20:03 | 46.23989 | 6.11166 | 1377 ft | 55 kts | 225° |
| 2026-04-24 20:03 | 46.23818 | 6.11080 | 1376 ft | 11 kts | 188° |
| 2026-04-24 20:03 | 46.23787 | 6.11081 | 1379 ft | 0 kts | 173° |
| 2026-04-24 20:04 | 46.23780 | 6.11083 | 1379 ft | 6 kts | 173° |
| 2026-04-24 20:05 | 46.23703 | 6.11071 | 1384 ft | 16 kts | 208° |
| 2026-04-24 20:05 | 46.23627 | 6.10965 | 1388 ft | 14 kts | 225° |
| 2026-04-24 20:05 | 46.23570 | 6.10880 | 1386 ft | 11 kts | 225° |
| 2026-04-24 20:05 | 46.23518 | 6.10806 | 1390 ft | 10 kts | 225° |
| 2026-04-24 20:06 | 46.23475 | 6.10815 | 1402 ft | 5 kts | 133° |
| 2026-04-24 20:06 | 46.23453 | 6.10846 | 1399 ft | 4 kts | 135° |
| 2026-04-24 20:06 | 46.23451 | 6.10850 | 1399 ft | 0 kts | 135° |